Time;durP1;ratioP1;P1;durP2;ratioP2;P2;SDS_P1;SDS_P2;PMS_P1;PMS_P2;Temp;Humidity;BMP_temperature;BMP_pressure;BME280_temperature;BME280_humidity;BME280_pressure;Samples;Min_cycle;Max_cycle;Signal;HPM_P1;HPM_P2
2022/03/15 00:01:20;;;;;;;66.93;34.67;;;;;;;;;;4373888;32;20242;-51
2022/03/15 00:03:46;;;;;;;73.40;33.40;;;;;;;;;;4372997;32;20654;-51
2022/03/15 00:06:11;;;;;;;54.03;26.83;;;;;;;;;;4384212;32;20244;-51
2022/03/15 00:08:37;;;;;;;41.73;21.40;;;;;;;;;;4375845;32;20695;-51
2022/03/15 00:11:05;;;;;;;44.37;20.23;;;;;;;;;;4378150;32;20226;-50
2022/03/15 00:13:37;;;;;;;36.33;21.83;;;;;;;;;;4387968;32;20265;-52
2022/03/15 00:16:04;;;;;;;58.27;26.90;;;;;;;;;;4391188;32;20225;-52
2022/03/15 00:18:30;;;;;;;80.53;35.90;;;;;;;;;;4367630;32;20306;-52
2022/03/15 00:21:01;;;;;;;98.80;45.80;;;;;;;;;;4387895;32;20317;-51
2022/03/15 00:23:26;;;;;;;94.17;41.40;;;;;;;;;;4376711;32;20320;-52
2022/03/15 00:25:52;;;;;;;87.83;41.07;;;;;;;;;;4388458;32;20715;-51
2022/03/15 00:28:19;;;;;;;97.13;49.30;;;;;;;;;;4374328;32;20316;-50
2022/03/15 00:30:45;;;;;;;92.63;45.00;;;;;;;;;;4387353;32;20301;-52
2022/03/15 00:33:11;;;;;;;107.63;49.17;;;;;;;;;;4378136;32;20281;-50
2022/03/15 00:35:37;;;;;;;109.17;55.37;;;;;;;;;;4373086;32;20614;-51
2022/03/15 00:38:02;;;;;;;133.63;59.47;;;;;;;;;;4372178;32;20225;-50
2022/03/15 00:40:28;;;;;;;128.50;55.50;;;;;;;;;;4378708;32;20353;-51
2022/03/15 00:42:54;;;;;;;128.27;61.03;;;;;;;;;;4388120;32;20300;-52
2022/03/15 00:45:23;;;;;;;149.80;59.97;;;;;;;;;;4387870;32;20344;-51
2022/03/15 00:47:52;;;;;;;96.00;46.63;;;;;;;;;;4387832;32;20218;-51
2022/03/15 00:50:18;;;;;;;150.43;64.27;;;;;;;;;;4387541;32;20257;-53
2022/03/15 00:52:44;;;;;;;129.90;60.33;;;;;;;;;;4387855;32;20335;-51
2022/03/15 00:55:10;;;;;;;122.53;52.60;;;;;;;;;;4374537;32;20292;-51
2022/03/15 00:57:36;;;;;;;115.97;52.70;;;;;;;;;;4387759;32;20277;-50
2022/03/15 01:00:04;;;;;;;110.87;47.53;;;;;;;;;;4387060;32;20300;-51
2022/03/15 01:02:30;;;;;;;107.37;47.43;;;;;;;;;;4387368;32;20246;-51
2022/03/15 01:04:55;;;;;;;111.80;46.53;;;;;;;;;;4373725;32;20484;-51
2022/03/15 01:07:21;;;;;;;102.00;44.00;;;;;;;;;;4387181;32;20289;-50
2022/03/15 01:09:46;;;;;;;92.77;40.97;;;;;;;;;;4374320;32;20344;-51
2022/03/15 01:12:12;;;;;;;82.07;34.80;;;;;;;;;;4383708;32;20385;-50
2022/03/15 01:14:37;;;;;;;75.50;33.73;;;;;;;;;;4372866;32;20297;-51
2022/03/15 01:17:03;;;;;;;69.87;33.67;;;;;;;;;;4371736;32;20362;-51
2022/03/15 01:19:29;;;;;;;65.20;30.10;;;;;;;;;;4387028;32;20730;-51
2022/03/15 01:21:56;;;;;;;62.87;29.63;;;;;;;;;;4387400;32;21145;-52
2022/03/15 01:24:21;;;;;;;74.10;35.10;;;;;;;;;;4387861;32;20232;-51
2022/03/15 01:26:47;;;;;;;77.43;40.13;;;;;;;;;;4386642;32;20367;-50
2022/03/15 01:29:13;;;;;;;64.67;34.00;;;;;;;;;;4387802;32;20677;-52
2022/03/15 01:31:38;;;;;;;76.67;36.83;;;;;;;;;;4375001;32;20260;-50
2022/03/15 01:34:04;;;;;;;89.27;38.67;;;;;;;;;;4372431;32;20610;-50
2022/03/15 01:36:30;;;;;;;83.17;36.40;;;;;;;;;;4386718;32;20337;-50
2022/03/15 01:38:57;;;;;;;69.03;34.00;;;;;;;;;;4386674;32;20358;-51
2022/03/15 01:41:23;;;;;;;69.97;33.33;;;;;;;;;;4373389;32;20226;-51
2022/03/15 01:43:49;;;;;;;58.13;30.80;;;;;;;;;;4374625;32;20350;-53
2022/03/15 01:46:16;;;;;;;56.23;28.57;;;;;;;;;;4371999;32;20238;-52
2022/03/15 01:48:42;;;;;;;74.23;34.63;;;;;;;;;;4372175;32;20300;-52
2022/03/15 01:51:09;;;;;;;54.57;28.03;;;;;;;;;;4371669;32;20226;-51
2022/03/15 01:53:37;;;;;;;57.07;27.47;;;;;;;;;;4378748;32;20225;-51
2022/03/15 01:56:02;;;;;;;60.10;27.50;;;;;;;;;;4387266;32;20289;-52
2022/03/15 01:58:28;;;;;;;59.27;27.60;;;;;;;;;;4375449;32;20277;-61
2022/03/15 02:00:54;;;;;;;63.40;28.23;;;;;;;;;;4372035;32;20673;-51
2022/03/15 02:03:19;;;;;;;67.00;32.83;;;;;;;;;;4374203;32;20222;-51
2022/03/15 02:05:45;;;;;;;68.17;31.63;;;;;;;;;;4371099;32;20261;-52
2022/03/15 02:08:14;;;;;;;63.03;28.03;;;;;;;;;;4371671;32;20395;-50
2022/03/15 02:10:40;;;;;;;69.00;29.67;;;;;;;;;;4387102;32;20512;-50
2022/03/15 02:13:07;;;;;;;63.00;30.37;;;;;;;;;;4385826;32;20274;-49
2022/03/15 02:15:33;;;;;;;60.60;28.93;;;;;;;;;;4387069;32;20237;-50
2022/03/15 02:17:58;;;;;;;59.17;28.60;;;;;;;;;;4377685;32;20774;-51
2022/03/15 02:20:23;;;;;;;57.80;29.03;;;;;;;;;;4360662;32;20293;-51
2022/03/15 02:22:49;;;;;;;54.20;25.30;;;;;;;;;;4360544;32;20229;-50
2022/03/15 02:25:15;;;;;;;46.17;24.17;;;;;;;;;;4387202;32;20295;-51
2022/03/15 02:27:40;;;;;;;62.50;27.07;;;;;;;;;;4365751;32;20327;-50
2022/03/15 02:30:06;;;;;;;55.67;24.80;;;;;;;;;;4374729;32;20273;-52
2022/03/15 02:32:33;;;;;;;53.63;25.63;;;;;;;;;;4385904;32;20229;-51
2022/03/15 02:34:58;;;;;;;51.23;23.50;;;;;;;;;;4387130;32;20268;-52
2022/03/15 02:37:24;;;;;;;91.70;37.20;;;;;;;;;;4381651;32;20293;-50
2022/03/15 02:39:50;;;;;;;83.10;38.27;;;;;;;;;;4378160;32;20455;-51
2022/03/15 02:42:16;;;;;;;76.83;37.80;;;;;;;;;;4382413;32;20326;-51
2022/03/15 02:44:42;;;;;;;63.67;27.83;;;;;;;;;;4358431;32;20317;-51
2022/03/15 02:47:07;;;;;;;60.90;26.53;;;;;;;;;;4371614;32;20280;-51
2022/03/15 02:49:33;;;;;;;62.67;27.13;;;;;;;;;;4372624;32;20350;-50
2022/03/15 02:51:58;;;;;;;53.73;25.37;;;;;;;;;;4372316;32;20253;-49
2022/03/15 02:54:24;;;;;;;40.20;21.13;;;;;;;;;;4374353;32;20324;-51
2022/03/15 02:56:50;;;;;;;38.10;21.40;;;;;;;;;;4389739;32;20241;-51
2022/03/15 02:59:16;;;;;;;38.83;18.17;;;;;;;;;;4375197;32;20409;-51
2022/03/15 03:01:45;;;;;;;50.37;22.33;;;;;;;;;;4388294;32;20242;-51
2022/03/15 03:04:11;;;;;;;46.90;22.43;;;;;;;;;;4389672;32;20217;-52
2022/03/15 03:06:38;;;;;;;51.73;25.50;;;;;;;;;;4375107;32;20277;-52
2022/03/15 03:09:04;;;;;;;65.13;31.43;;;;;;;;;;4375325;32;20349;-52
2022/03/15 03:11:30;;;;;;;59.93;29.83;;;;;;;;;;4389801;32;20272;-51
2022/03/15 03:13:57;;;;;;;105.23;39.57;;;;;;;;;;4375605;32;20562;-51
2022/03/15 03:16:24;;;;;;;99.43;39.63;;;;;;;;;;4389622;32;20324;-52
2022/03/15 03:18:51;;;;;;;91.63;39.67;;;;;;;;;;4372305;32;20226;-51
2022/03/15 03:21:16;;;;;;;80.83;38.50;;;;;;;;;;4372225;32;20253;-51
2022/03/15 03:23:42;;;;;;;81.33;39.60;;;;;;;;;;4367668;32;20331;-51
2022/03/15 03:26:08;;;;;;;89.33;38.60;;;;;;;;;;4389515;32;20242;-51
2022/03/15 03:28:36;;;;;;;91.57;41.17;;;;;;;;;;4374613;32;20733;-51
2022/03/15 03:31:03;;;;;;;86.43;39.30;;;;;;;;;;4388802;32;20233;-51
2022/03/15 03:33:30;;;;;;;81.13;40.03;;;;;;;;;;4377575;32;20290;-51
2022/03/15 03:35:58;;;;;;;119.57;45.30;;;;;;;;;;4373847;32;20586;-52
2022/03/15 03:38:24;;;;;;;108.70;43.83;;;;;;;;;;4373733;32;20332;-52
2022/03/15 03:40:50;;;;;;;99.10;44.10;;;;;;;;;;4387853;32;20251;-51
2022/03/15 03:43:16;;;;;;;83.30;37.27;;;;;;;;;;4374919;32;20362;-53
2022/03/15 03:45:42;;;;;;;85.03;37.93;;;;;;;;;;4389216;32;20262;-52
2022/03/15 03:48:07;;;;;;;91.93;40.00;;;;;;;;;;4388332;32;20558;-52
2022/03/15 03:50:35;;;;;;;77.00;33.87;;;;;;;;;;4367085;32;20332;-51
2022/03/15 03:53:01;;;;;;;68.53;32.87;;;;;;;;;;4375179;32;20642;-49
2022/03/15 03:55:27;;;;;;;64.47;31.13;;;;;;;;;;4389156;32;20273;-51
2022/03/15 03:57:52;;;;;;;86.30;37.43;;;;;;;;;;4381711;32;20287;-51
2022/03/15 04:00:18;;;;;;;110.07;45.83;;;;;;;;;;4388248;32;20784;-50
2022/03/15 04:02:44;;;;;;;62.53;28.47;;;;;;;;;;4375067;32;20356;-51
2022/03/15 04:05:10;;;;;;;60.70;30.07;;;;;;;;;;4371795;32;20730;-50
2022/03/15 04:07:35;;;;;;;55.27;27.63;;;;;;;;;;4382803;32;20260;-51
2022/03/15 04:10:06;;;;;;;58.73;30.83;;;;;;;;;;4373552;32;20340;-54
2022/03/15 04:12:32;;;;;;;59.10;29.90;;;;;;;;;;4377375;32;20322;-53
2022/03/15 04:14:58;;;;;;;63.07;28.03;;;;;;;;;;4388510;32;20277;-53
2022/03/15 04:17:25;;;;;;;63.00;31.10;;;;;;;;;;4388148;32;20301;-52
2022/03/15 04:19:50;;;;;;;57.20;31.83;;;;;;;;;;4364556;32;20338;-51
2022/03/15 04:22:15;;;;;;;61.10;33.23;;;;;;;;;;4384864;32;20329;-51
2022/03/15 04:24:41;;;;;;;65.57;32.13;;;;;;;;;;4388655;32;20314;-51
2022/03/15 04:27:06;;;;;;;68.17;34.40;;;;;;;;;;4371251;32;20345;-50
2022/03/15 04:29:32;;;;;;;71.93;34.27;;;;;;;;;;4373558;32;20322;-53
2022/03/15 04:31:58;;;;;;;77.00;38.37;;;;;;;;;;4383697;32;20587;-51
2022/03/15 04:34:24;;;;;;;75.97;38.63;;;;;;;;;;4373073;32;20328;-52
2022/03/15 04:36:49;;;;;;;90.50;40.67;;;;;;;;;;4373303;32;20268;-52
2022/03/15 04:39:15;;;;;;;108.17;48.70;;;;;;;;;;4374830;32;20343;-51
2022/03/15 04:41:40;;;;;;;94.50;45.23;;;;;;;;;;4387791;32;20221;-52
2022/03/15 04:44:06;;;;;;;100.17;47.43;;;;;;;;;;4388510;32;20334;-51
2022/03/15 04:46:33;;;;;;;99.30;45.20;;;;;;;;;;4388271;32;20230;-52
2022/03/15 04:48:59;;;;;;;113.63;47.47;;;;;;;;;;4387451;32;20260;-51
2022/03/15 04:51:25;;;;;;;101.80;46.77;;;;;;;;;;4386932;32;20627;-51
2022/03/15 04:53:51;;;;;;;92.23;43.40;;;;;;;;;;4373633;32;20378;-51
2022/03/15 04:56:17;;;;;;;100.97;44.63;;;;;;;;;;4388241;32;20704;-52
2022/03/15 04:58:42;;;;;;;143.03;61.63;;;;;;;;;;4380825;32;20311;-53
2022/03/15 05:01:08;;;;;;;122.43;60.10;;;;;;;;;;4373978;32;20266;-50
2022/03/15 05:03:35;;;;;;;104.83;50.00;;;;;;;;;;4374999;32;20309;-51
2022/03/15 05:06:01;;;;;;;125.90;57.10;;;;;;;;;;4372836;32;20304;-51
2022/03/15 05:08:27;;;;;;;138.87;64.73;;;;;;;;;;4372950;32;20652;-51
2022/03/15 05:11:07;;;;;;;110.47;51.60;;;;;;;;;;4387538;32;20258;-51
2022/03/15 05:13:42;;;;;;;72.27;37.57;;;;;;;;;;4386935;32;20214;-50
2022/03/15 05:16:14;;;;;;;63.57;31.87;;;;;;;;;;4361091;32;20225;-50
2022/03/15 05:18:40;;;;;;;64.30;31.77;;;;;;;;;;4386926;32;20206;-52
2022/03/15 05:21:07;;;;;;;45.20;24.50;;;;;;;;;;4387678;32;20229;-52
2022/03/15 05:23:33;;;;;;;43.03;22.43;;;;;;;;;;4379475;32;20226;-52
2022/03/15 05:25:58;;;;;;;46.63;24.90;;;;;;;;;;4387644;32;20254;-52
2022/03/15 05:28:24;;;;;;;53.27;25.37;;;;;;;;;;4380645;32;20654;-52
2022/03/15 05:30:50;;;;;;;55.67;27.57;;;;;;;;;;4387492;32;20340;-52
2022/03/15 05:33:16;;;;;;;58.73;28.67;;;;;;;;;;4386333;32;20372;-53
2022/03/15 05:35:42;;;;;;;77.23;32.70;;;;;;;;;;4387636;32;20293;-52
2022/03/15 05:38:07;;;;;;;74.10;31.67;;;;;;;;;;4386633;32;20251;-51
2022/03/15 05:40:34;;;;;;;61.23;32.60;;;;;;;;;;4387279;32;20264;-50
2022/03/15 05:42:59;;;;;;;121.90;50.17;;;;;;;;;;4386865;32;20222;-51
2022/03/15 05:45:25;;;;;;;89.27;38.67;;;;;;;;;;4386893;32;20360;-51
2022/03/15 05:47:52;;;;;;;205.67;77.13;;;;;;;;;;4386007;32;20218;-51
2022/03/15 05:50:17;;;;;;;146.73;58.10;;;;;;;;;;4380488;32;20304;-51
2022/03/15 05:52:42;;;;;;;121.83;51.93;;;;;;;;;;4371671;32;20502;-51
2022/03/15 05:55:10;;;;;;;86.23;38.90;;;;;;;;;;4383515;32;20288;-52
2022/03/15 05:57:36;;;;;;;71.23;34.20;;;;;;;;;;4371667;32;20284;-52
2022/03/15 06:00:01;;;;;;;101.57;42.70;;;;;;;;;;4371951;32;20415;-53
2022/03/15 06:02:27;;;;;;;79.77;38.30;;;;;;;;;;4375772;32;20242;-53
2022/03/15 06:04:52;;;;;;;75.23;39.67;;;;;;;;;;4386327;32;20389;-51
2022/03/15 06:07:18;;;;;;;75.53;37.20;;;;;;;;;;4381183;32;20225;-52
2022/03/15 06:09:43;;;;;;;66.80;35.73;;;;;;;;;;4372188;32;20328;-52
2022/03/15 06:12:09;;;;;;;58.33;29.37;;;;;;;;;;4381532;32;20351;-51
2022/03/15 06:14:35;;;;;;;44.50;26.73;;;;;;;;;;4359393;32;20297;-51
2022/03/15 06:17:00;;;;;;;59.10;28.23;;;;;;;;;;4386220;32;20303;-51
2022/03/15 06:19:26;;;;;;;58.83;27.77;;;;;;;;;;4379432;32;20310;-53
2022/03/15 06:21:52;;;;;;;43.30;23.57;;;;;;;;;;4379111;32;20238;-53
2022/03/15 06:24:17;;;;;;;48.50;24.00;;;;;;;;;;4373647;32;20348;-53
2022/03/15 06:26:43;;;;;;;38.30;21.23;;;;;;;;;;4359303;32;20267;-52
2022/03/15 06:29:09;;;;;;;143.13;59.63;;;;;;;;;;4370350;32;20296;-53
2022/03/15 06:31:35;;;;;;;68.00;32.93;;;;;;;;;;4386770;32;20314;-51
2022/03/15 06:34:04;;;;;;;66.57;29.37;;;;;;;;;;4385777;32;20362;-52
2022/03/15 06:36:30;;;;;;;48.60;21.67;;;;;;;;;;4370893;32;20313;-52
2022/03/15 06:38:56;;;;;;;53.57;26.37;;;;;;;;;;4385435;32;20319;-52
2022/03/15 06:41:21;;;;;;;53.53;26.27;;;;;;;;;;4384456;32;20671;-52
2022/03/15 06:43:47;;;;;;;53.77;27.33;;;;;;;;;;4371653;32;20381;-51
2022/03/15 06:46:14;;;;;;;38.83;22.93;;;;;;;;;;4370298;32;20267;-51
2022/03/15 06:48:40;;;;;;;40.90;21.27;;;;;;;;;;4374112;32;20658;-51
2022/03/15 06:51:05;;;;;;;50.60;28.57;;;;;;;;;;4376720;32;20328;-52
2022/03/15 06:53:31;;;;;;;52.40;27.63;;;;;;;;;;4382381;32;20241;-50
2022/03/15 06:55:57;;;;;;;55.93;25.20;;;;;;;;;;4371340;32;20291;-51
2022/03/15 06:58:22;;;;;;;47.60;19.77;;;;;;;;;;4381650;32;20323;-52
2022/03/15 07:00:48;;;;;;;58.17;28.20;;;;;;;;;;4375577;32;20360;-51
2022/03/15 07:03:14;;;;;;;38.27;21.10;;;;;;;;;;4373805;32;20301;-51
2022/03/15 07:05:40;;;;;;;36.47;21.53;;;;;;;;;;4369042;32;20264;-51
2022/03/15 07:08:06;;;;;;;60.30;22.67;;;;;;;;;;4371177;32;20238;-52
2022/03/15 07:10:32;;;;;;;55.17;25.37;;;;;;;;;;4380350;32;20348;-53
2022/03/15 07:12:57;;;;;;;42.00;21.90;;;;;;;;;;4371337;32;20321;-51
2022/03/15 07:15:23;;;;;;;53.70;25.07;;;;;;;;;;4381946;32;20877;-53
2022/03/15 07:17:54;;;;;;;47.87;23.60;;;;;;;;;;4374636;32;20271;-51
2022/03/15 07:20:21;;;;;;;44.57;25.40;;;;;;;;;;4380529;32;20352;-52
2022/03/15 07:22:47;;;;;;;40.77;23.33;;;;;;;;;;4379143;32;20669;-52
2022/03/15 07:25:13;;;;;;;50.53;24.13;;;;;;;;;;4372142;32;20296;-52
2022/03/15 07:27:39;;;;;;;41.43;24.13;;;;;;;;;;4371309;32;20401;-51
2022/03/15 07:30:05;;;;;;;48.63;24.40;;;;;;;;;;4380239;32;20296;-51
2022/03/15 07:32:31;;;;;;;47.17;24.90;;;;;;;;;;4381331;32;20263;-53
2022/03/15 07:34:56;;;;;;;44.30;26.47;;;;;;;;;;4371339;32;20356;-52
2022/03/15 07:37:22;;;;;;;40.40;25.43;;;;;;;;;;4364964;32;20238;-51
2022/03/15 07:39:47;;;;;;;48.03;25.27;;;;;;;;;;4387218;32;20356;-52
2022/03/15 07:42:13;;;;;;;55.30;26.80;;;;;;;;;;4384538;32;20272;-52
2022/03/15 07:44:42;;;;;;;49.10;25.40;;;;;;;;;;4378023;32;20205;-51
2022/03/15 07:47:07;;;;;;;32.60;21.27;;;;;;;;;;4385889;32;20299;-52
2022/03/15 07:49:34;;;;;;;42.97;21.13;;;;;;;;;;4359896;32;20309;-55
2022/03/15 07:51:59;;;;;;;35.90;19.73;;;;;;;;;;4361211;32;20451;-51
2022/03/15 07:54:25;;;;;;;42.57;19.23;;;;;;;;;;4374877;32;20299;-51
2022/03/15 07:56:51;;;;;;;28.07;16.30;;;;;;;;;;4370366;32;20292;-51
2022/03/15 07:59:17;;;;;;;31.90;17.03;;;;;;;;;;4373776;32;20243;-51
2022/03/15 08:01:42;;;;;;;30.70;17.57;;;;;;;;;;4374519;32;20678;-50
2022/03/15 08:04:08;;;;;;;28.60;16.23;;;;;;;;;;4388732;32;20696;-51
2022/03/15 08:06:35;;;;;;;50.03;25.67;;;;;;;;;;4388489;32;20862;-53
2022/03/15 08:09:01;;;;;;;33.97;18.07;;;;;;;;;;4388541;32;20684;-51
2022/03/15 08:11:27;;;;;;;24.47;13.97;;;;;;;;;;4388998;32;20253;-52
2022/03/15 08:13:53;;;;;;;19.73;14.20;;;;;;;;;;4388620;32;20275;-53
2022/03/15 08:16:21;;;;;;;36.93;13.97;;;;;;;;;;4388619;32;20593;-52
2022/03/15 08:18:47;;;;;;;30.47;15.60;;;;;;;;;;4377286;32;20215;-51
2022/03/15 08:21:12;;;;;;;29.10;14.63;;;;;;;;;;4389074;32;20641;-51
2022/03/15 08:23:38;;;;;;;28.27;13.57;;;;;;;;;;4376377;32;20296;-53
2022/03/15 08:26:04;;;;;;;23.77;14.37;;;;;;;;;;4384681;32;20330;-51
2022/03/15 08:28:29;;;;;;;31.83;14.77;;;;;;;;;;4376542;32;20311;-50
2022/03/15 08:30:55;;;;;;;21.50;14.20;;;;;;;;;;4387139;32;20221;-51
2022/03/15 08:33:23;;;;;;;23.00;12.20;;;;;;;;;;4386433;32;20322;-52
2022/03/15 08:35:49;;;;;;;27.00;13.20;;;;;;;;;;4387472;32;20323;-53
2022/03/15 08:38:14;;;;;;;25.60;14.37;;;;;;;;;;4381077;32;20293;-52
2022/03/15 08:40:40;;;;;;;25.60;14.33;;;;;;;;;;4381633;32;20597;-52
2022/03/15 08:43:06;;;;;;;22.33;14.60;;;;;;;;;;4372598;32;20275;-51
2022/03/15 08:45:32;;;;;;;29.13;17.33;;;;;;;;;;4387915;32;20233;-51
2022/03/15 08:47:58;;;;;;;27.60;15.60;;;;;;;;;;4382750;32;20689;-51
2022/03/15 08:50:23;;;;;;;27.13;16.30;;;;;;;;;;4370528;32;20658;-50
2022/03/15 08:52:49;;;;;;;25.80;14.87;;;;;;;;;;4374562;32;20273;-51
2022/03/15 08:55:15;;;;;;;42.07;26.63;;;;;;;;;;4363521;32;20807;-51
2022/03/15 08:57:41;;;;;;;29.70;16.87;;;;;;;;;;4381205;32;20233;-51
2022/03/15 09:00:10;;;;;;;32.80;18.13;;;;;;;;;;4372774;32;20277;-52
2022/03/15 09:02:35;;;;;;;58.17;36.07;;;;;;;;;;4379734;32;20260;-50
2022/03/15 09:05:01;;;;;;;35.47;17.33;;;;;;;;;;4372940;32;20702;-54
2022/03/15 09:07:27;;;;;;;36.53;19.50;;;;;;;;;;4372448;32;20336;-53
2022/03/15 09:09:53;;;;;;;34.30;17.43;;;;;;;;;;4383829;32;20771;-55
2022/03/15 09:12:19;;;;;;;31.63;16.47;;;;;;;;;;4381548;32;20241;-52
2022/03/15 09:14:45;;;;;;;32.73;16.23;;;;;;;;;;4368655;32;20249;-51
2022/03/15 09:17:10;;;;;;;25.07;15.73;;;;;;;;;;4367045;32;20260;-53
2022/03/15 09:19:36;;;;;;;34.50;17.17;;;;;;;;;;4376735;32;20634;-51
2022/03/15 09:22:03;;;;;;;30.30;15.87;;;;;;;;;;4383885;32;20241;-52
2022/03/15 09:24:32;;;;;;;28.70;15.87;;;;;;;;;;4386219;32;20218;-51
2022/03/15 09:26:57;;;;;;;30.53;18.00;;;;;;;;;;4380382;32;20344;-52
2022/03/15 09:29:22;;;;;;;27.10;15.80;;;;;;;;;;4383434;32;20285;-52
2022/03/15 09:31:49;;;;;;;28.93;17.03;;;;;;;;;;4379203;32;20268;-52
2022/03/15 09:34:17;;;;;;;29.23;17.77;;;;;;;;;;4380658;32;20226;-53
2022/03/15 09:36:44;;;;;;;27.83;17.23;;;;;;;;;;4379658;32;20258;-52
2022/03/15 09:39:10;;;;;;;34.97;18.77;;;;;;;;;;4379826;32;20217;-52
2022/03/15 09:41:41;;;;;;;27.43;17.00;;;;;;;;;;4379419;32;20330;-52
2022/03/15 09:44:09;;;;;;;34.03;18.53;;;;;;;;;;4373451;32;20277;-52
2022/03/15 09:46:43;;;;;;;29.53;16.83;;;;;;;;;;4387417;32;20260;-52
2022/03/15 09:49:09;;;;;;;26.17;17.13;;;;;;;;;;4369653;32;20245;-52
2022/03/15 09:51:36;;;;;;;33.47;19.17;;;;;;;;;;4384063;32;20314;-51
2022/03/15 09:54:04;;;;;;;28.67;18.30;;;;;;;;;;4385089;32;20264;-53
2022/03/15 09:56:34;;;;;;;32.40;19.23;;;;;;;;;;4383254;32;20354;-51
2022/03/15 09:59:00;;;;;;;29.10;18.73;;;;;;;;;;4383953;32;20693;-52
2022/03/15 10:01:26;;;;;;;31.33;17.80;;;;;;;;;;4370856;32;20258;-52
2022/03/15 10:03:51;;;;;;;35.53;19.43;;;;;;;;;;4386530;32;21212;-52
2022/03/15 10:06:16;;;;;;;34.73;19.03;;;;;;;;;;4386853;32;20613;-51
2022/03/15 10:08:43;;;;;;;33.37;17.03;;;;;;;;;;4386892;32;20772;-51
2022/03/15 10:11:09;;;;;;;35.13;18.27;;;;;;;;;;4386199;32;20340;-52
2022/03/15 10:13:35;;;;;;;25.70;16.03;;;;;;;;;;4386857;32;20260;-55
2022/03/15 10:16:03;;;;;;;24.43;14.83;;;;;;;;;;4387870;32;20245;-53
2022/03/15 10:18:29;;;;;;;23.77;15.10;;;;;;;;;;4386359;32;20213;-52
2022/03/15 10:20:55;;;;;;;30.80;14.43;;;;;;;;;;4381833;32;20244;-51
2022/03/15 10:23:29;;;;;;;28.20;13.53;;;;;;;;;;4358233;32;20313;-52
2022/03/15 10:25:56;;;;;;;24.43;13.83;;;;;;;;;;4385774;32;20283;-52
2022/03/15 10:28:22;;;;;;;27.13;13.47;;;;;;;;;;4387375;32;20285;-52
2022/03/15 10:30:48;;;;;;;32.17;15.37;;;;;;;;;;4373003;32;20226;-51
2022/03/15 10:33:17;;;;;;;24.63;15.47;;;;;;;;;;4372115;32;20308;-52
2022/03/15 10:35:45;;;;;;;33.30;17.37;;;;;;;;;;4372543;32;20290;-51
2022/03/15 10:38:11;;;;;;;27.00;13.90;;;;;;;;;;4379341;32;20222;-53
2022/03/15 10:40:40;;;;;;;29.47;14.30;;;;;;;;;;4379004;32;20269;-52
2022/03/15 10:43:23;;;;;;;25.80;14.50;;;;;;;;;;4370419;32;20613;-52
2022/03/15 10:45:55;;;;;;;26.20;15.57;;;;;;;;;;4386492;32;20328;-54
2022/03/15 10:48:23;;;;;;;22.33;14.07;;;;;;;;;;4387090;32;20193;-50
2022/03/15 10:50:59;;;;;;;26.60;14.50;;;;;;;;;;4381541;32;20319;-51
2022/03/15 10:53:37;;;;;;;17.77;12.27;;;;;;;;;;4387009;32;20835;-51
2022/03/15 10:56:13;;;;;;;26.30;14.63;;;;;;;;;;4379617;32;20260;-52
2022/03/15 10:59:04;;;;;;;19.13;12.97;;;;;;;;;;4377008;32;20351;-54
2022/03/15 11:01:38;;;;;;;30.80;13.97;;;;;;;;;;4386059;32;20229;-52
2022/03/15 11:04:11;;;;;;;25.23;12.83;;;;;;;;;;4386390;32;20709;-52
2022/03/15 11:06:44;;;;;;;21.40;10.90;;;;;;;;;;4373429;32;20293;-53
2022/03/15 11:09:27;;;;;;;21.50;10.70;;;;;;;;;;4384672;32;20251;-53
2022/03/15 11:12:07;;;;;;;12.13;8.20;;;;;;;;;;4386816;32;20264;-52
2022/03/15 11:14:59;;;;;;;15.87;9.60;;;;;;;;;;4386152;32;20553;-52
2022/03/15 11:17:26;;;;;;;34.30;16.30;;;;;;;;;;4389213;32;20475;-52
2022/03/15 11:19:54;;;;;;;18.33;9.57;;;;;;;;;;4380938;32;20231;-51
2022/03/15 11:22:23;;;;;;;15.60;9.80;;;;;;;;;;4386444;32;20439;-52
2022/03/15 11:25:12;;;;;;;14.63;8.50;;;;;;;;;;4374726;32;20353;-53
2022/03/15 11:27:51;;;;;;;22.90;10.43;;;;;;;;;;4371849;32;20261;-52
2022/03/15 11:30:19;;;;;;;9.87;5.97;;;;;;;;;;4383387;32;20249;-51
2022/03/15 11:32:45;;;;;;;8.10;5.63;;;;;;;;;;4388318;32;20314;-51
2022/03/15 11:35:12;;;;;;;13.13;5.43;;;;;;;;;;4388698;32;20806;-52
2022/03/15 11:37:40;;;;;;;7.27;4.27;;;;;;;;;;4377310;32;20686;-52
2022/03/15 11:40:09;;;;;;;11.17;5.23;;;;;;;;;;4389089;32;20263;-52
2022/03/15 11:42:39;;;;;;;6.40;4.13;;;;;;;;;;4391011;32;20560;-52
2022/03/15 11:45:26;;;;;;;7.57;4.97;;;;;;;;;;4394860;32;20735;-51
2022/03/15 11:48:01;;;;;;;7.90;4.60;;;;;;;;;;4376130;32;20302;-52
2022/03/15 11:50:45;;;;;;;6.70;5.13;;;;;;;;;;4379336;32;20217;-53
2022/03/15 11:53:26;;;;;;;10.47;6.40;;;;;;;;;;4387627;32;20193;-51
2022/03/15 11:56:05;;;;;;;14.20;6.27;;;;;;;;;;4360902;32;20646;-52
2022/03/15 11:58:30;;;;;;;10.87;5.23;;;;;;;;;;4373504;32;20609;-51
2022/03/15 12:01:09;;;;;;;8.23;4.57;;;;;;;;;;4377831;32;20245;-51
2022/03/15 12:03:47;;;;;;;9.67;5.00;;;;;;;;;;4380377;32;20347;-53
2022/03/15 12:06:18;;;;;;;9.70;6.47;;;;;;;;;;4387838;32;20245;-52
2022/03/15 12:08:51;;;;;;;37.37;15.83;;;;;;;;;;4382842;32;20316;-52
2022/03/15 12:11:27;;;;;;;12.60;5.70;;;;;;;;;;4384626;32;20269;-52
2022/03/15 12:13:59;;;;;;;17.07;9.97;;;;;;;;;;4384506;32;20227;-51
2022/03/15 12:16:34;;;;;;;11.63;5.07;;;;;;;;;;4373665;32;20439;-52
2022/03/15 12:19:23;;;;;;;17.77;6.07;;;;;;;;;;4382450;32;20218;-52
2022/03/15 12:21:59;;;;;;;13.90;7.27;;;;;;;;;;4386291;32;20256;-52
2022/03/15 12:25:01;;;;;;;8.83;6.13;;;;;;;;;;4379137;32;20322;-51
2022/03/15 12:27:27;;;;;;;18.37;6.70;;;;;;;;;;4381111;32;20238;-52
2022/03/15 12:29:58;;;;;;;16.47;10.10;;;;;;;;;;4373230;32;20292;-51
2022/03/15 12:32:25;;;;;;;28.03;14.07;;;;;;;;;;4376508;32;20253;-52
2022/03/15 12:34:55;;;;;;;11.70;5.57;;;;;;;;;;4374572;32;20221;-51
2022/03/15 12:37:31;;;;;;;9.60;6.37;;;;;;;;;;4375072;32;20599;-51
2022/03/15 12:39:59;;;;;;;13.20;7.17;;;;;;;;;;4382564;32;20294;-52
2022/03/15 12:42:25;;;;;;;12.40;8.40;;;;;;;;;;4382722;32;20396;-52
2022/03/15 12:44:52;;;;;;;9.83;6.27;;;;;;;;;;4387878;32;20376;-53
2022/03/15 12:47:47;;;;;;;11.57;5.37;;;;;;;;;;4379361;32;20253;-53
2022/03/15 12:50:21;;;;;;;13.17;7.13;;;;;;;;;;4383990;32;20343;-53
2022/03/15 12:52:51;;;;;;;8.70;5.53;;;;;;;;;;4383141;32;20209;-52
2022/03/15 12:55:27;;;;;;;11.23;5.60;;;;;;;;;;4388271;32;20247;-54
2022/03/15 12:57:56;;;;;;;9.07;5.73;;;;;;;;;;4386553;32;20341;-52
2022/03/15 13:00:23;;;;;;;31.37;15.93;;;;;;;;;;4387743;32;20214;-53
2022/03/15 13:02:52;;;;;;;23.97;13.27;;;;;;;;;;4376309;32;20432;-53
2022/03/15 13:05:19;;;;;;;17.37;8.93;;;;;;;;;;4387015;32;20257;-52
2022/03/15 13:07:50;;;;;;;17.33;8.63;;;;;;;;;;4387028;32;20332;-53
2022/03/15 13:10:16;;;;;;;13.43;7.87;;;;;;;;;;4387568;32;20579;-52
2022/03/15 13:12:43;;;;;;;27.37;9.03;;;;;;;;;;4386342;32;21332;-52
2022/03/15 13:15:11;;;;;;;16.27;7.33;;;;;;;;;;4387644;32;20217;-54
2022/03/15 13:17:46;;;;;;;11.87;6.43;;;;;;;;;;4386749;32;20239;-53
2022/03/15 13:20:34;;;;;;;11.53;6.80;;;;;;;;;;4382141;32;20313;-52
2022/03/15 13:23:07;;;;;;;7.53;5.20;;;;;;;;;;4387610;32;20262;-53
2022/03/15 13:25:36;;;;;;;9.13;5.07;;;;;;;;;;4388157;32;20252;-53
2022/03/15 13:28:06;;;;;;;16.87;5.40;;;;;;;;;;4380654;32;20306;-52
2022/03/15 13:30:39;;;;;;;8.83;5.27;;;;;;;;;;4374620;32;20238;-52
2022/03/15 13:33:04;;;;;;;7.53;5.17;;;;;;;;;;4371882;32;20412;-52
2022/03/15 13:35:31;;;;;;;11.53;6.13;;;;;;;;;;4386520;32;20233;-52
2022/03/15 13:37:57;;;;;;;12.00;6.27;;;;;;;;;;4371341;32;20541;-53
2022/03/15 13:40:29;;;;;;;8.37;4.97;;;;;;;;;;4367915;32;20259;-52
2022/03/15 13:42:54;;;;;;;8.33;4.27;;;;;;;;;;4353802;32;20690;-54
2022/03/15 13:45:22;;;;;;;11.53;6.27;;;;;;;;;;4382271;32;20198;-51
2022/03/15 13:47:53;;;;;;;10.67;6.43;;;;;;;;;;4378712;32;20281;-52
2022/03/15 13:50:23;;;;;;;8.43;5.57;;;;;;;;;;4387572;32;20418;-52
2022/03/15 13:52:49;;;;;;;8.47;5.07;;;;;;;;;;4387365;32;20214;-52
2022/03/15 13:55:26;;;;;;;42.43;21.67;;;;;;;;;;4388117;32;20328;-54
2022/03/15 13:57:51;;;;;;;26.97;14.07;;;;;;;;;;4387010;32;20570;-52
2022/03/15 14:00:21;;;;;;;9.70;6.03;;;;;;;;;;4387295;32;20289;-53
2022/03/15 14:02:51;;;;;;;11.12;5.03;;;;;;;;;;4366795;32;20270;-51
2022/03/15 14:05:23;;;;;;;12.83;6.20;;;;;;;;;;4381672;32;20226;-53
2022/03/15 14:08:11;;;;;;;14.50;6.10;;;;;;;;;;4374941;32;20677;-52
2022/03/15 14:10:38;;;;;;;10.15;6.10;;;;;;;;;;4367342;32;20246;-52
2022/03/15 14:13:14;;;;;;;12.40;6.28;;;;;;;;;;4363027;32;20423;-52
2022/03/15 14:15:42;;;;;;;8.43;5.60;;;;;;;;;;4377070;32;20225;-53
2022/03/15 14:18:08;;;;;;;12.47;5.27;;;;;;;;;;4377920;32;20285;-51
2022/03/15 14:20:42;;;;;;;21.90;6.87;;;;;;;;;;4366226;32;20720;-52
2022/03/15 14:23:12;;;;;;;14.77;6.47;;;;;;;;;;4373800;32;20236;-52